Time;durP1;ratioP1;P1;durP2;ratioP2;P2;SDS_P1;SDS_P2;PMS_P1;PMS_P2;Temp;Humidity;BMP_temperature;BMP_pressure;BME280_temperature;BME280_humidity;BME280_pressure;Samples;Min_cycle;Max_cycle;Signal;HPM_P1;HPM_P2
2024/01/24 00:00:17;;;;;;;7.75;1.55;;;7.30;99.90;;;;;;5004462;28;20044;-81
2024/01/24 00:02:44;;;;;;;4.70;1.23;;;7.30;99.90;;;;;;5009809;28;20451;-79
2024/01/24 00:05:10;;;;;;;0.80;0.73;;;7.40;99.90;;;;;;5003398;28;20250;-80
2024/01/24 00:07:35;;;;;;;2.50;1.00;;;7.40;99.90;;;;;;5006312;28;20026;-84
2024/01/24 00:10:05;;;;;;;1.35;1.02;;;7.40;99.90;;;;;;5005196;28;20037;-80
2024/01/24 00:12:31;;;;;;;0.73;0.73;;;7.50;99.90;;;;;;4983718;28;20465;-82
2024/01/24 00:14:57;;;;;;;1.23;0.82;;;7.50;99.90;;;;;;5005091;28;20045;-79
2024/01/24 00:17:23;;;;;;;2.50;0.88;;;7.60;99.90;;;;;;5011737;28;20432;-78
2024/01/24 00:19:48;;;;;;;2.38;0.95;;;7.60;99.90;;;;;;5006924;28;20022;-80
2024/01/24 00:22:14;;;;;;;0.70;0.70;;;7.60;99.90;;;;;;4987125;28;20125;-80
2024/01/24 00:24:40;;;;;;;1.27;0.80;;;7.60;99.90;;;;;;4985642;28;20160;-82
2024/01/24 00:27:06;;;;;;;1.33;1.17;;;7.60;99.90;;;;;;5003874;28;20029;-81
2024/01/24 00:29:31;;;;;;;0.93;0.73;;;7.60;99.90;;;;;;5006664;28;20112;-80
2024/01/24 00:31:57;;;;;;;12.98;1.00;;;7.60;99.90;;;;;;5003618;28;20147;-82
2024/01/24 00:34:22;;;;;;;0.80;0.80;;;7.70;99.90;;;;;;5008707;28;20553;-82
2024/01/24 00:36:50;;;;;;;0.85;0.85;;;7.70;99.90;;;;;;5005095;28;20041;-82
2024/01/24 00:39:16;;;;;;;2.58;1.73;;;7.70;99.90;;;;;;5004547;28;20056;-83
2024/01/24 00:41:43;;;;;;;0.90;0.82;;;7.80;99.90;;;;;;5006066;28;20429;-82
2024/01/24 00:44:09;;;;;;;3.60;1.02;;;7.80;99.90;;;;;;5005187;28;20489;-78
2024/01/24 00:46:35;;;;;;;2.28;1.02;;;7.80;99.90;;;;;;5004741;28;20036;-82
2024/01/24 00:49:02;;;;;;;1.48;0.80;;;7.80;99.90;;;;;;5002149;28;20026;-85
2024/01/24 00:51:28;;;;;;;1.48;1.00;;;7.90;99.90;;;;;;5004137;28;20479;-81
2024/01/24 00:53:54;;;;;;;1.92;1.10;;;7.90;99.90;;;;;;5006511;28;20112;-80
2024/01/24 00:56:20;;;;;;;5.68;1.20;;;7.90;99.90;;;;;;5008188;28;20069;-84
2024/01/24 00:58:46;;;;;;;3.15;1.10;;;7.90;99.90;;;;;;5004993;28;20029;-84
2024/01/24 01:01:12;;;;;;;1.00;1.00;;;7.90;99.90;;;;;;4985863;28;20033;-84
2024/01/24 01:03:38;;;;;;;1.42;1.08;;;8.00;99.90;;;;;;5003535;28;20053;-83
2024/01/24 01:06:04;;;;;;;2.53;1.17;;;8.00;99.90;;;;;;5006065;28;20026;-83
2024/01/24 01:08:31;;;;;;;2.88;1.10;;;8.00;99.90;;;;;;5007098;28;20033;-82
2024/01/24 01:10:57;;;;;;;3.88;1.08;;;8.00;99.90;;;;;;5004754;28;20429;-80
2024/01/24 01:13:23;;;;;;;2.83;0.98;;;8.10;99.90;;;;;;5000322;28;20022;-78
2024/01/24 01:15:50;;;;;;;1.45;1.10;;;8.10;99.90;;;;;;5004750;28;20050;-81
2024/01/24 01:18:16;;;;;;;4.20;1.33;;;8.10;99.90;;;;;;4987036;28;20030;-87
2024/01/24 01:20:41;;;;;;;3.33;1.10;;;8.10;99.90;;;;;;5007197;28;20568;-80
2024/01/24 01:23:07;;;;;;;1.77;1.00;;;8.10;99.90;;;;;;5003892;28;20405;-78
2024/01/24 01:25:32;;;;;;;4.97;1.33;;;8.20;99.90;;;;;;5003493;28;20022;-82
2024/01/24 01:27:58;;;;;;;1.58;0.88;;;8.20;99.90;;;;;;5004989;28;20402;-80
2024/01/24 01:30:24;;;;;;;3.28;1.67;;;8.20;99.90;;;;;;5007089;28;20386;-81
2024/01/24 01:32:50;;;;;;;1.00;0.98;;;8.20;99.90;;;;;;4985217;28;20026;-84
2024/01/24 01:35:16;;;;;;;2.45;1.02;;;8.20;99.90;;;;;;5002461;28;20275;-80
2024/01/24 01:37:45;;;;;;;1.05;0.90;;;8.30;99.90;;;;;;5004626;28;20470;-80
2024/01/24 01:40:10;;;;;;;2.13;1.00;;;8.30;99.90;;;;;;5003241;28;20366;-82
2024/01/24 01:42:42;;;;;;;2.60;1.08;;;8.40;99.90;;;;;;5006201;28;20094;-83
2024/01/24 01:45:09;;;;;;;6.30;1.10;;;8.40;99.90;;;;;;5005841;28;20107;-82
2024/01/24 01:47:35;;;;;;;1.23;0.93;;;8.50;99.90;;;;;;5002039;28;20032;-86
2024/01/24 01:50:01;;;;;;;2.42;1.35;;;8.60;99.90;;;;;;5011413;28;20103;-80
2024/01/24 01:52:27;;;;;;;1.95;1.00;;;8.70;99.90;;;;;;5004360;28;20902;-86
2024/01/24 01:54:53;;;;;;;1.85;1.10;;;8.70;99.90;;;;;;5004424;28;20046;-83
2024/01/24 01:57:19;;;;;;;3.67;1.17;;;8.80;99.90;;;;;;5005795;28;20029;-84
2024/01/24 01:59:45;;;;;;;2.25;1.27;;;8.90;99.90;;;;;;5003172;28;20036;-80
2024/01/24 02:02:11;;;;;;;3.15;1.30;;;8.90;99.90;;;;;;5007292;28;20268;-81
2024/01/24 02:04:37;;;;;;;2.67;1.30;;;8.90;99.90;;;;;;5005636;28;20041;-80
2024/01/24 02:07:02;;;;;;;2.72;1.30;;;9.00;99.90;;;;;;5003408;28;20044;-84
2024/01/24 02:09:28;;;;;;;1.80;1.20;;;9.00;99.90;;;;;;5000353;28;20064;-78
2024/01/24 02:11:54;;;;;;;7.95;1.67;;;9.10;99.90;;;;;;5001078;28;20224;-79
2024/01/24 02:14:20;;;;;;;3.63;1.88;;;9.10;99.90;;;;;;5010657;28;20057;-81
2024/01/24 02:16:45;;;;;;;6.97;1.55;;;9.20;99.90;;;;;;5020990;28;20037;-85
2024/01/24 02:19:12;;;;;;;4.85;1.50;;;9.10;99.90;;;;;;5019354;28;20029;-82
2024/01/24 02:21:38;;;;;;;4.85;1.83;;;9.20;99.90;;;;;;4997986;28;20407;-83
2024/01/24 02:24:08;;;;;;;4.47;1.92;;;9.20;99.90;;;;;;5014161;28;20028;-85
2024/01/24 02:26:34;;;;;;;6.13;1.73;;;9.20;99.90;;;;;;5016071;28;20025;-86
2024/01/24 02:29:00;;;;;;;1.88;1.50;;;9.30;99.90;;;;;;5008747;28;20041;-81
2024/01/24 02:31:25;;;;;;;4.28;1.42;;;9.40;99.90;;;;;;5010445;28;20048;-82
2024/01/24 02:33:51;;;;;;;6.78;1.80;;;9.60;99.90;;;;;;5017110;28;20035;-85
2024/01/24 02:36:16;;;;;;;2.85;1.45;;;9.60;99.90;;;;;;5010005;28;20633;-86
2024/01/24 02:38:42;;;;;;;5.25;1.60;;;9.70;99.90;;;;;;4994004;28;20049;-80
2024/01/24 02:41:08;;;;;;;4.25;1.67;;;9.70;99.90;;;;;;4996333;28;20029;-83
2024/01/24 02:43:43;;;;;;;4.28;1.30;;;9.70;99.90;;;;;;5012609;28;20030;-80
2024/01/24 02:46:08;;;;;;;5.18;1.63;;;9.90;99.90;;;;;;5012439;28;20602;-83
2024/01/24 02:48:34;;;;;;;3.78;1.30;;;9.90;99.90;;;;;;5013068;28;20104;-82
2024/01/24 02:51:00;;;;;;;2.10;1.45;;;9.90;99.90;;;;;;5013352;28;20105;-87
2024/01/24 02:53:25;;;;;;;2.45;1.23;;;10.00;99.90;;;;;;5017890;28;20037;-82
2024/01/24 02:55:51;;;;;;;3.17;1.45;;;10.00;99.90;;;;;;5011527;28;20049;-84
2024/01/24 02:58:17;;;;;;;2.17;1.17;;;10.00;99.90;;;;;;5021692;28;20459;-84
2024/01/24 03:00:42;;;;;;;3.22;1.35;;;10.10;99.90;;;;;;5008875;28;20068;-84
2024/01/24 03:03:08;;;;;;;7.10;1.80;;;10.10;99.90;;;;;;5010323;28;20032;-83
2024/01/24 03:05:34;;;;;;;2.05;1.10;;;10.10;99.90;;;;;;5008952;28;20109;-81
2024/01/24 03:07:59;;;;;;;6.38;1.17;;;10.10;99.90;;;;;;5015879;28;20030;-81
2024/01/24 03:10:27;;;;;;;2.80;1.55;;;10.20;99.90;;;;;;5019692;28;20025;-81
2024/01/24 03:12:54;;;;;;;1.77;1.08;;;10.10;99.90;;;;;;5014092;28;20037;-83
2024/01/24 03:15:20;;;;;;;4.10;1.15;;;10.20;99.90;;;;;;5007475;28;20054;-80
2024/01/24 03:17:46;;;;;;;2.78;1.08;;;10.20;99.90;;;;;;5010145;28;20104;-79
2024/01/24 03:20:13;;;;;;;2.25;1.08;;;10.30;99.90;;;;;;5006845;28;20514;-84
2024/01/24 03:22:41;;;;;;;4.22;1.30;;;10.40;99.90;;;;;;5006321;28;20034;-80
2024/01/24 03:25:07;;;;;;;1.98;1.00;;;10.40;99.90;;;;;;5001558;28;20057;-83
2024/01/24 03:27:33;;;;;;;2.28;1.17;;;10.30;99.90;;;;;;5010984;28;20080;-80
2024/01/24 03:29:59;;;;;;;1.95;0.90;;;10.30;99.90;;;;;;5007197;28;20018;-81
2024/01/24 03:32:25;;;;;;;2.05;1.23;;;10.40;99.90;;;;;;5012348;28;20038;-81
2024/01/24 03:35:10;;;;;;;3.10;1.25;;;10.40;99.90;;;;;;5005735;28;20088;-81
2024/01/24 03:37:35;;;;;;;3.33;1.05;;;10.40;99.90;;;;;;4997107;28;20030;-85
2024/01/24 03:40:01;;;;;;;1.92;1.10;;;10.50;99.90;;;;;;5005087;28;20022;-82
2024/01/24 03:42:27;;;;;;;4.35;1.15;;;10.40;99.90;;;;;;5008224;28;20018;-84
2024/01/24 03:44:53;;;;;;;2.70;0.90;;;10.40;99.90;;;;;;5007602;28;20036;-84
2024/01/24 03:47:19;;;;;;;2.80;0.90;;;10.40;99.90;;;;;;4999895;28;20040;-80
2024/01/24 03:49:44;;;;;;;3.78;1.33;;;10.40;99.90;;;;;;5007080;28;20113;-81
2024/01/24 03:52:10;;;;;;;3.47;1.20;;;10.50;99.90;;;;;;5004358;28;20025;-81
2024/01/24 03:54:35;;;;;;;1.88;0.90;;;10.50;99.90;;;;;;5007476;28;20045;-80
2024/01/24 03:57:01;;;;;;;1.27;0.85;;;10.40;99.90;;;;;;5004770;28;20089;-82
2024/01/24 03:59:26;;;;;;;1.85;0.90;;;10.50;99.90;;;;;;5003144;28;20088;-81
2024/01/24 04:01:53;;;;;;;2.65;1.15;;;10.50;99.90;;;;;;5002936;28;20350;-83
2024/01/24 04:04:19;;;;;;;4.20;1.30;;;10.50;99.90;;;;;;5002415;28;20077;-84
2024/01/24 04:06:44;;;;;;;4.95;1.20;;;10.50;99.90;;;;;;5005694;28;20025;-83
2024/01/24 04:09:10;;;;;;;2.47;1.30;;;10.50;99.90;;;;;;5007001;28;20492;-80
2024/01/24 04:11:37;;;;;;;2.10;1.20;;;10.50;99.90;;;;;;4985453;28;20030;-81
2024/01/24 04:14:05;;;;;;;1.00;0.88;;;10.60;99.90;;;;;;5004621;28;20281;-85
2024/01/24 04:16:30;;;;;;;1.40;1.08;;;10.60;99.90;;;;;;5021522;28;20045;-86
2024/01/24 04:18:57;;;;;;;1.10;0.82;;;10.60;99.90;;;;;;5012216;28;20025;-84
2024/01/24 04:21:23;;;;;;;0.85;0.65;;;10.60;99.90;;;;;;4999522;28;20036;-80
2024/01/24 04:23:49;;;;;;;4.93;0.90;;;10.70;99.90;;;;;;5009866;28;20084;-81
2024/01/24 04:26:15;;;;;;;2.72;1.13;;;10.70;99.90;;;;;;5006872;28;20386;-81
2024/01/24 04:28:44;;;;;;;3.50;0.60;;;10.80;99.90;;;;;;5011959;28;20041;-82
2024/01/24 04:31:10;;;;;;;0.70;0.70;;;10.80;99.90;;;;;;5005187;28;20037;-85
2024/01/24 04:33:35;;;;;;;2.08;1.00;;;10.80;99.90;;;;;;5020110;28;20021;-83
2024/01/24 04:36:01;;;;;;;1.13;0.80;;;10.80;99.90;;;;;;5019064;28;20403;-82
2024/01/24 04:38:26;;;;;;;4.88;0.60;;;10.80;99.90;;;;;;5006664;28;20112;-85
2024/01/24 04:40:52;;;;;;;1.40;0.70;;;10.90;99.90;;;;;;4990883;28;20037;-85
2024/01/24 04:43:19;;;;;;;0.60;0.60;;;10.90;99.90;;;;;;5013272;28;20490;-83
2024/01/24 04:45:45;;;;;;;2.15;0.77;;;10.90;99.90;;;;;;5005193;28;20030;-81
2024/01/24 04:48:11;;;;;;;0.57;0.57;;;10.90;99.90;;;;;;5002497;28;20087;-81
2024/01/24 04:50:37;;;;;;;2.50;0.50;;;10.90;99.90;;;;;;5006326;28;20049;-83
2024/01/24 04:53:03;;;;;;;0.52;0.52;;;11.00;99.90;;;;;;4979160;28;20486;-82
2024/01/24 04:55:28;;;;;;;2.35;0.73;;;11.00;99.90;;;;;;5011673;28;20063;-80
2024/01/24 04:57:54;;;;;;;1.30;0.60;;;11.00;99.90;;;;;;5010165;28;20382;-83
2024/01/24 05:00:20;;;;;;;0.52;0.50;;;11.00;99.90;;;;;;5007826;28;20371;-81
2024/01/24 05:02:45;;;;;;;0.98;0.47;;;10.90;99.90;;;;;;5009728;28;20116;-81
2024/01/24 05:05:11;;;;;;;1.15;0.60;;;11.00;99.90;;;;;;5005230;28;21053;-82
2024/01/24 05:07:36;;;;;;;0.50;0.50;;;11.00;99.90;;;;;;5010235;28;20022;-81
2024/01/24 05:10:03;;;;;;;0.55;0.55;;;11.00;99.90;;;;;;5013122;28;20022;-82
2024/01/24 05:12:29;;;;;;;0.60;0.60;;;11.00;99.90;;;;;;5006848;28;20481;-82
2024/01/24 05:14:56;;;;;;;7.68;1.05;;;11.00;99.90;;;;;;5005033;28;20142;-81
2024/01/24 05:17:23;;;;;;;0.43;0.43;;;11.10;99.90;;;;;;5005813;28;20030;-83
2024/01/24 05:19:49;;;;;;;1.00;0.50;;;11.10;99.90;;;;;;4996482;28;20071;-82
2024/01/24 05:22:15;;;;;;;0.50;0.50;;;11.10;99.90;;;;;;5000116;28;20364;-81
2024/01/24 05:24:47;;;;;;;1.77;0.50;;;11.00;99.90;;;;;;4995376;28;20482;-80
2024/01/24 05:27:13;;;;;;;0.68;0.63;;;11.10;99.90;;;;;;4998105;28;20033;-85
2024/01/24 05:29:45;;;;;;;1.20;0.52;;;11.10;99.90;;;;;;5006308;28;20656;-83
2024/01/24 05:32:13;;;;;;;2.65;0.90;;;11.20;99.90;;;;;;5005868;28;20504;-82
2024/01/24 05:34:39;;;;;;;0.40;0.40;;;11.30;99.90;;;;;;4999321;28;20021;-81
2024/01/24 05:37:08;;;;;;;0.50;0.50;;;11.30;99.90;;;;;;5000559;28;20030;-84
2024/01/24 05:39:33;;;;;;;1.27;0.50;;;11.30;99.90;;;;;;4998026;28;20033;-82
2024/01/24 05:41:59;;;;;;;0.57;0.57;;;11.30;99.90;;;;;;5005342;28;20026;-80
2024/01/24 05:44:24;;;;;;;1.35;0.50;;;11.30;99.90;;;;;;5002336;28;20041;-80
2024/01/24 05:46:53;;;;;;;0.70;0.70;;;11.20;99.90;;;;;;4998443;28;20029;-81
2024/01/24 05:49:19;;;;;;;0.73;0.70;;;11.30;99.90;;;;;;5005652;28;20127;-84
2024/01/24 05:51:44;;;;;;;0.50;0.50;;;11.30;99.90;;;;;;5002179;28;20061;-84
2024/01/24 05:54:10;;;;;;;0.57;0.47;;;11.30;99.90;;;;;;5005105;28;20104;-85
2024/01/24 05:56:38;;;;;;;0.73;0.50;;;11.30;99.90;;;;;;5001233;28;20034;-78
2024/01/24 05:59:03;;;;;;;1.10;0.93;;;11.40;99.90;;;;;;5001356;28;20471;-85
2024/01/24 06:01:29;;;;;;;1.17;0.50;;;11.30;99.90;;;;;;5001826;28;20037;-85
2024/01/24 06:03:55;;;;;;;0.88;0.82;;;11.30;99.90;;;;;;5004066;28;20033;-82
2024/01/24 06:06:20;;;;;;;0.60;0.60;;;11.30;99.90;;;;;;5007557;28;20057;-81
2024/01/24 06:08:46;;;;;;;0.60;0.60;;;11.30;99.90;;;;;;5006518;28;20037;-81
2024/01/24 06:11:14;;;;;;;2.08;0.60;;;11.30;99.90;;;;;;5002332;28;20029;-80
2024/01/24 06:13:40;;;;;;;1.02;0.65;;;11.40;99.90;;;;;;5002762;28;20045;-79
2024/01/24 06:16:06;;;;;;;3.63;0.60;;;11.40;99.90;;;;;;5005442;28;20041;-80
2024/01/24 06:18:32;;;;;;;1.15;0.63;;;11.50;99.90;;;;;;5001019;28;20546;-81
2024/01/24 06:20:57;;;;;;;1.05;0.63;;;11.50;99.90;;;;;;5004099;28;20037;-82
2024/01/24 06:23:23;;;;;;;1.35;0.68;;;11.50;99.90;;;;;;5001580;28;20425;-83
2024/01/24 06:25:48;;;;;;;0.70;0.70;;;11.60;99.90;;;;;;5004236;28;20108;-81
2024/01/24 06:28:14;;;;;;;12.18;0.82;;;11.70;99.90;;;;;;4984632;28;20031;-80
2024/01/24 06:30:40;;;;;;;1.30;0.50;;;11.60;99.90;;;;;;5000149;28;20018;-80
2024/01/24 06:33:05;;;;;;;2.55;0.70;;;11.50;99.90;;;;;;5000688;28;20030;-85
2024/01/24 06:35:31;;;;;;;1.58;0.80;;;11.40;99.90;;;;;;5006332;28;20398;-82
2024/01/24 06:37:57;;;;;;;1.25;1.13;;;11.30;99.90;;;;;;5006336;28;20021;-80
2024/01/24 06:40:22;;;;;;;1.17;0.80;;;11.20;99.90;;;;;;5008650;28;20026;-83
2024/01/24 06:42:49;;;;;;;1.60;0.70;;;11.10;99.90;;;;;;5009207;28;20040;-79
2024/01/24 06:45:16;;;;;;;0.75;0.70;;;11.10;99.90;;;;;;5006844;28;20041;-81
2024/01/24 06:47:43;;;;;;;0.52;0.52;;;11.00;99.90;;;;;;5004081;28;20030;-82
2024/01/24 06:50:12;;;;;;;2.70;0.65;;;11.00;99.90;;;;;;5004092;28;20109;-79
2024/01/24 06:52:37;;;;;;;2.28;0.77;;;11.00;99.90;;;;;;5012782;28;20018;-85
2024/01/24 06:55:04;;;;;;;0.70;0.70;;;11.00;99.90;;;;;;5004339;28;20055;-81
2024/01/24 06:57:29;;;;;;;1.63;0.82;;;11.00;99.90;;;;;;5005282;28;20026;-80
2024/01/24 06:59:55;;;;;;;0.63;0.63;;;11.00;99.90;;;;;;5006608;28;20036;-78
2024/01/24 07:02:20;;;;;;;1.90;0.93;;;11.00;99.90;;;;;;5004664;28;20036;-80
2024/01/24 07:04:46;;;;;;;1.58;1.05;;;11.00;99.90;;;;;;4994430;28;20018;-82
2024/01/24 07:07:12;;;;;;;2.80;0.77;;;11.00;99.90;;;;;;4994089;28;20022;-79
2024/01/24 07:09:37;;;;;;;8.23;1.50;;;11.10;99.90;;;;;;5007051;28;20006;-83
2024/01/24 07:12:04;;;;;;;3.65;1.10;;;11.10;99.90;;;;;;4997910;28;20036;-82
2024/01/24 07:14:29;;;;;;;2.75;1.02;;;11.30;99.90;;;;;;5010029;28;20070;-80
2024/01/24 07:16:55;;;;;;;1.50;0.90;;;11.40;99.90;;;;;;5014536;28;20049;-82
2024/01/24 07:19:21;;;;;;;2.55;1.17;;;11.40;99.90;;;;;;5012291;28;20390;-80
2024/01/24 07:21:47;;;;;;;8.38;1.48;;;11.40;99.90;;;;;;5012929;28;20029;-86
2024/01/24 07:24:13;;;;;;;3.58;1.17;;;11.30;99.90;;;;;;5011145;28;20036;-79
2024/01/24 07:26:39;;;;;;;11.65;2.67;;;11.30;99.90;;;;;;5005141;28;20034;-79
2024/01/24 07:29:04;;;;;;;4.72;1.58;;;11.30;99.90;;;;;;5003342;28;20029;-81
2024/01/24 07:31:30;;;;;;;10.68;1.50;;;11.40;99.90;;;;;;4999045;28;20125;-82
2024/01/24 07:33:56;;;;;;;6.57;1.55;;;11.40;99.90;;;;;;5008311;28;20036;-78
2024/01/24 07:36:22;;;;;;;4.20;1.55;;;11.30;99.90;;;;;;5013585;28;20100;-79
2024/01/24 07:38:47;;;;;;;5.78;1.30;;;11.30;99.90;;;;;;5015576;28;20529;-81
2024/01/24 07:41:14;;;;;;;6.85;2.00;;;11.40;99.90;;;;;;5007659;28;20041;-80
2024/01/24 07:43:40;;;;;;;7.57;1.67;;;11.40;99.90;;;;;;5006782;28;20017;-89
2024/01/24 07:46:06;;;;;;;11.45;2.70;;;11.40;99.90;;;;;;5012647;28;20036;-81
2024/01/24 07:48:31;;;;;;;7.93;1.30;;;11.50;99.90;;;;;;5014600;28;20017;-81
2024/01/24 07:50:57;;;;;;;6.57;1.67;;;11.50;99.90;;;;;;4998458;28;20022;-80
2024/01/24 07:53:26;;;;;;;10.20;2.35;;;11.50;99.90;;;;;;5010648;28;20392;-83
2024/01/24 07:55:55;;;;;;;9.93;2.20;;;11.40;99.90;;;;;;5006843;28;20141;-83
2024/01/24 07:58:23;;;;;;;11.00;1.88;;;11.30;99.90;;;;;;5002984;28;20426;-83
2024/01/24 08:00:48;;;;;;;7.63;2.17;;;11.30;99.90;;;;;;5014127;28;20517;-81
2024/01/24 08:03:14;;;;;;;6.65;1.50;;;11.20;99.90;;;;;;5008575;28;20164;-79
2024/01/24 08:05:39;;;;;;;12.45;1.80;;;11.10;99.90;;;;;;5011600;28;20163;-80
2024/01/24 08:08:05;;;;;;;11.55;2.15;;;11.00;99.90;;;;;;4995614;28;20424;-81
2024/01/24 08:10:31;;;;;;;10.70;2.17;;;10.80;99.90;;;;;;5006126;28;20044;-79
2024/01/24 08:12:57;;;;;;;14.82;2.30;;;10.70;99.90;;;;;;5008631;28;20022;-81
2024/01/24 08:15:23;;;;;;;9.15;2.60;;;10.60;99.90;;;;;;5003490;28;20089;-82
2024/01/24 08:17:49;;;;;;;6.40;1.88;;;10.50;99.90;;;;;;5004612;28;20530;-80
2024/01/24 08:20:16;;;;;;;11.63;2.50;;;10.40;99.90;;;;;;5006392;28;20030;-83
2024/01/24 08:22:42;;;;;;;16.90;4.10;;;10.30;99.90;;;;;;5010392;28;20033;-81
2024/01/24 08:25:08;;;;;;;8.68;4.18;;;10.20;99.90;;;;;;5000486;28;20478;-82
2024/01/24 08:27:34;;;;;;;17.73;5.45;;;10.10;99.90;;;;;;5004129;28;20029;-82
2024/01/24 08:30:03;;;;;;;17.95;4.72;;;10.10;99.90;;;;;;5003911;28;20033;-79
2024/01/24 08:32:29;;;;;;;23.52;7.60;;;10.00;99.90;;;;;;4997948;28;20105;-78
2024/01/24 08:34:54;;;;;;;16.70;4.95;;;10.00;99.90;;;;;;5003555;28;20125;-84
2024/01/24 08:37:20;;;;;;;20.23;6.55;;;9.90;99.90;;;;;;5006327;28;20283;-81
2024/01/24 08:39:46;;;;;;;21.25;5.88;;;9.90;99.90;;;;;;5005976;28;20022;-81
2024/01/24 08:42:11;;;;;;;35.50;10.60;;;9.90;99.90;;;;;;5005126;28;20323;-79
2024/01/24 08:44:37;;;;;;;31.85;9.40;;;9.90;99.90;;;;;;5002330;28;20140;-80
2024/01/24 08:47:03;;;;;;;19.02;6.70;;;9.90;99.90;;;;;;5005940;28;20064;-82
2024/01/24 08:49:28;;;;;;;24.00;5.47;;;9.90;99.90;;;;;;5002210;28;20544;-81
2024/01/24 08:51:56;;;;;;;15.80;3.40;;;10.00;99.90;;;;;;5006250;28;20046;-82
2024/01/24 08:54:22;;;;;;;22.65;4.45;;;10.00;99.90;;;;;;5004626;28;20030;-80
2024/01/24 08:56:48;;;;;;;21.17;4.60;;;10.10;99.90;;;;;;5003379;28;20045;-82
2024/01/24 08:59:13;;;;;;;15.80;3.33;;;10.10;99.90;;;;;;5002747;28;20030;-83
2024/01/24 09:01:39;;;;;;;31.58;6.00;;;10.20;99.90;;;;;;5003797;28;20034;-83
2024/01/24 09:04:05;;;;;;;28.70;4.60;;;10.20;99.90;;;;;;4985034;28;20030;-80
2024/01/24 09:06:30;;;;;;;31.65;4.38;;;10.20;99.90;;;;;;4989328;28;20083;-80
2024/01/24 09:08:56;;;;;;;28.98;5.45;;;10.20;99.90;;;;;;5004195;28;20225;-79
2024/01/24 09:11:22;;;;;;;33.13;6.28;;;10.20;99.90;;;;;;5005278;28;20056;-85
2024/01/24 09:13:48;;;;;;;29.67;4.95;;;10.20;99.90;;;;;;5003728;28;20068;-82
2024/01/24 09:16:15;;;;;;;36.25;5.32;;;10.10;99.90;;;;;;5015468;28;20058;-79
2024/01/24 09:18:41;;;;;;;40.13;5.47;;;10.10;99.90;;;;;;5014354;28;20057;-80
2024/01/24 09:21:07;;;;;;;20.48;4.07;;;10.10;99.90;;;;;;4990643;28;20068;-84
2024/01/24 09:23:33;;;;;;;26.23;5.30;;;10.10;99.90;;;;;;5019269;28;20032;-78
2024/01/24 09:25:58;;;;;;;22.08;4.47;;;10.10;99.90;;;;;;5010941;28;20038;-80
2024/01/24 09:28:24;;;;;;;31.35;6.85;;;10.10;99.90;;;;;;5013708;28;20033;-78
2024/01/24 09:30:50;;;;;;;22.92;4.53;;;10.10;99.90;;;;;;5018489;28;20029;-81
2024/01/24 09:33:16;;;;;;;25.88;4.60;;;10.10;99.90;;;;;;5003427;28;20029;-84
2024/01/24 09:35:44;;;;;;;24.35;4.80;;;10.00;99.90;;;;;;5011608;28;20052;-80
2024/01/24 09:38:10;;;;;;;21.42;4.63;;;9.90;99.90;;;;;;5013609;28;20033;-80
2024/01/24 09:40:35;;;;;;;23.30;5.20;;;9.80;99.90;;;;;;5012244;28;20025;-78
2024/01/24 09:43:07;;;;;;;21.95;4.15;;;9.80;99.90;;;;;;5010582;28;20556;-82
2024/01/24 09:45:37;;;;;;;21.85;3.80;;;9.60;99.90;;;;;;5009286;28;20057;-84
2024/01/24 09:48:03;;;;;;;35.80;5.38;;;9.60;99.90;;;;;;5002824;28;20040;-85
2024/01/24 09:50:29;;;;;;;32.20;5.55;;;9.60;99.90;;;;;;5007176;28;20029;-82
2024/01/24 09:52:56;;;;;;;33.00;4.60;;;9.60;99.90;;;;;;5014364;28;20030;-83
2024/01/24 09:55:23;;;;;;;31.75;5.50;;;9.60;99.90;;;;;;5014503;28;20033;-86
2024/01/24 09:57:51;;;;;;;31.95;4.90;;;9.60;99.90;;;;;;5010748;28;20036;-80
2024/01/24 10:00:18;;;;;;;31.52;4.93;;;9.60;99.90;;;;;;5004947;28;20041;-84
2024/01/24 10:02:48;;;;;;;48.17;5.30;;;9.70;99.90;;;;;;4999932;28;20037;-82
2024/01/24 10:05:17;;;;;;;32.50;5.28;;;9.70;99.90;;;;;;5002197;28;20038;-85
2024/01/24 10:07:44;;;;;;;25.90;4.93;;;9.80;99.90;;;;;;4996983;28;20104;-81
2024/01/24 10:10:12;;;;;;;28.83;6.22;;;9.90;99.90;;;;;;4995828;28;20632;-80
2024/01/24 10:12:41;;;;;;;30.48;4.93;;;9.90;99.90;;;;;;5002803;28;20050;-84
2024/01/24 10:15:07;;;;;;;26.00;5.30;;;10.00;99.90;;;;;;5013703;28;20054;-83
2024/01/24 10:17:35;;;;;;;33.00;5.93;;;10.00;99.90;;;;;;5022520;28;20420;-85
2024/01/24 10:20:06;;;;;;;30.63;5.72;;;10.10;99.90;;;;;;5021354;28;20056;-82
2024/01/24 10:22:35;;;;;;;32.67;5.20;;;10.20;99.90;;;;;;5024971;28;20035;-84
2024/01/24 10:25:02;;;;;;;46.83;7.03;;;10.10;99.90;;;;;;5020084;28;20061;-79
2024/01/24 10:27:28;;;;;;;40.20;6.78;;;10.10;99.90;;;;;;5023648;28;20036;-80
2024/01/24 10:29:53;;;;;;;32.75;5.82;;;10.10;99.90;;;;;;5019916;28;20543;-81
2024/01/24 10:32:20;;;;;;;51.75;9.07;;;10.00;99.90;;;;;;5022329;28;20478;-81
2024/01/24 10:34:48;;;;;;;39.70;5.68;;;10.00;99.90;;;;;;5023451;28;20021;-86
2024/01/24 10:37:16;;;;;;;30.65;5.85;;;9.90;99.90;;;;;;5022352;28;20486;-82
2024/01/24 10:39:43;;;;;;;30.67;5.78;;;9.80;99.90;;;;;;5022979;28;20026;-80
2024/01/24 10:42:12;;;;;;;31.73;4.57;;;9.70;99.90;;;;;;5020691;28;20357;-82
2024/01/24 10:44:42;;;;;;;40.88;5.68;;;9.60;99.90;;;;;;5020854;28;20029;-85
2024/01/24 10:47:10;;;;;;;37.90;6.07;;;9.40;99.90;;;;;;5019728;28;20555;-84
2024/01/24 10:49:39;;;;;;;43.45;6.45;;;9.40;99.90;;;;;;5003930;28;20125;-80
2024/01/24 10:52:06;;;;;;;44.15;6.22;;;9.40;99.90;;;;;;5025172;28;20167;-80
2024/01/24 10:54:34;;;;;;;26.70;4.60;;;9.30;99.90;;;;;;5020604;28;20033;-81
2024/01/24 10:57:02;;;;;;;38.55;5.20;;;9.30;99.90;;;;;;5016888;28;20041;-80
2024/01/24 10:59:31;;;;;;;33.15;5.13;;;9.30;99.90;;;;;;5004153;28;20401;-80
2024/01/24 11:01:57;;;;;;;33.10;4.90;;;9.40;99.90;;;;;;5022285;28;20029;-85
2024/01/24 11:04:24;;;;;;;37.22;6.05;;;9.50;99.90;;;;;;5020142;28;20014;-79
2024/01/24 11:06:53;;;;;;;33.10;5.70;;;9.50;99.90;;;;;;5021500;28;20032;-84
2024/01/24 11:09:53;;;;;;;33.42;5.75;;;9.60;99.90;;;;;;5022705;28;20029;-83
2024/01/24 11:12:21;;;;;;;39.28;7.13;;;9.70;99.90;;;;;;4980922;28;20429;-83
2024/01/24 11:14:48;;;;;;;39.30;8.10;;;9.70;99.90;;;;;;5011290;28;20184;-79
2024/01/24 11:17:13;;;;;;;48.75;7.05;;;9.70;99.90;;;;;;4994702;28;20064;-81
2024/01/24 11:19:39;;;;;;;45.00;6.75;;;9.70;99.90;;;;;;5006554;28;20558;-82
2024/01/24 11:22:22;;;;;;;28.13;5.88;;;9.60;99.90;;;;;;5003074;28;20026;-80
2024/01/24 11:24:48;;;;;;;46.22;6.70;;;9.50;99.90;;;;;;5006595;28;20044;-83
2024/01/24 11:27:33;;;;;;;47.10;7.90;;;9.40;99.90;;;;;;5004099;28;20037;-82
2024/01/24 11:30:16;;;;;;;50.72;9.32;;;9.30;99.90;;;;;;5003047;28;20045;-83
2024/01/24 11:32:44;;;;;;;45.53;7.18;;;9.30;99.90;;;;;;5005175;28;20391;-81
2024/01/24 11:35:32;;;;;;;38.85;6.43;;;9.40;99.90;;;;;;5004332;28;20268;-80
2024/01/24 11:38:24;;;;;;;42.92;7.78;;;9.40;99.90;;;;;;5004007;28;20497;-77
2024/01/24 11:40:56;;;;;;;37.42;7.15;;;9.40;99.90;;;;;;4996989;28;20064;-79
2024/01/24 11:43:25;;;;;;;53.47;6.28;;;9.40;99.90;;;;;;5006716;28;20030;-80
2024/01/24 11:46:05;;;;;;;31.10;6.53;;;9.40;99.90;;;;;;5004397;28;20248;-81
2024/01/24 11:48:36;;;;;;;52.95;8.73;;;9.40;99.90;;;;;;5005680;28;20087;-81
2024/01/24 11:51:13;;;;;;;46.03;5.95;;;9.50;99.90;;;;;;5003237;28;20040;-79
2024/01/24 11:53:39;;;;;;;42.00;5.72;;;9.50;99.90;;;;;;5005092;28;20038;-80
2024/01/24 11:56:07;;;;;;;48.72;6.10;;;9.60;99.90;;;;;;5005349;28;20042;-79
2024/01/24 11:58:34;;;;;;;53.58;8.55;;;9.60;99.90;;;;;;4982149;28;20021;-80
2024/01/24 12:01:10;;;;;;;42.30;8.02;;;9.50;99.90;;;;;;5005330;28;20397;-80
2024/01/24 12:03:36;;;;;;;50.03;7.30;;;9.50;99.90;;;;;;5004201;28;20037;-79
2024/01/24 12:06:04;;;;;;;54.30;7.60;;;9.50;99.90;;;;;;5001490;28;20384;-80
2024/01/24 12:08:30;;;;;;;50.15;7.38;;;9.50;99.90;;;;;;5007309;28;20024;-81
2024/01/24 12:10:56;;;;;;;46.72;7.55;;;9.40;99.90;;;;;;5002310;28;20022;-80
2024/01/24 12:13:23;;;;;;;50.28;7.63;;;9.40;99.90;;;;;;5009836;28;20029;-80
2024/01/24 12:15:52;;;;;;;47.75;8.65;;;9.50;99.90;;;;;;5013831;28;20053;-78
2024/01/24 12:18:17;;;;;;;65.57;10.15;;;9.50;99.90;;;;;;5003643;28;20017;-78
2024/01/24 12:21:08;;;;;;;40.22;8.40;;;9.60;99.90;;;;;;5009354;28;20045;-83
2024/01/24 12:23:34;;;;;;;49.22;11.88;;;9.60;99.90;;;;;;5004732;28;20088;-81
2024/01/24 12:26:00;;;;;;;51.95;8.48;;;9.60;99.90;;;;;;5004848;28;20030;-80
2024/01/24 12:28:25;;;;;;;64.95;12.55;;;9.60;99.90;;;;;;5014550;28;20040;-81
2024/01/24 12:30:53;;;;;;;54.63;9.93;;;9.70;99.90;;;;;;5009832;28;20156;-82
2024/01/24 12:33:19;;;;;;;41.08;8.93;;;9.60;99.90;;;;;;5012910;28;20116;-81
2024/01/24 12:35:46;;;;;;;51.83;10.30;;;9.60;99.90;;;;;;5008323;28;20466;-80
2024/01/24 12:38:12;;;;;;;44.10;7.55;;;9.70;99.90;;;;;;5013491;28;20087;-80
2024/01/24 12:40:37;;;;;;;48.70;7.93;;;9.70;99.90;;;;;;5014390;28;20108;-82
2024/01/24 12:43:03;;;;;;;57.38;11.52;;;9.70;99.90;;;;;;5012384;28;20324;-84
2024/01/24 12:45:29;;;;;;;46.83;9.05;;;9.70;99.90;;;;;;5011951;28;20041;-80